Time;durP1;ratioP1;P1;durP2;ratioP2;P2;SDS_P1;SDS_P2;PMS_P1;PMS_P2;Temp;Humidity;BMP_temperature;BMP_pressure;BME280_temperature;BME280_humidity;BME280_pressure;Samples;Min_cycle;Max_cycle;Signal;HPM_P1;HPM_P2
2022/05/10 00:02:28;;;;;;;5.50;1.70;;;;;;101629.86;;;;107254;1274;63998;-28
2022/05/10 00:04:55;;;;;;;3.70;1.70;;;;;;101630.12;;;;107237;1274;64017;-29
2022/05/10 00:07:23;;;;;;;5.30;2.00;;;;;;101625.77;;;;107284;1274;63995;-28
2022/05/10 00:09:51;;;;;;;4.50;1.90;;;;;;101627.39;;;;107251;1274;65596;-28
2022/05/10 00:12:18;;;;;;;3.60;1.70;;;;;;101624.94;;;;107245;1274;63921;-29
2022/05/10 00:14:45;;;;;;;5.60;2.20;;;;;;101621.23;;;;107245;1273;63935;-29
2022/05/10 00:17:26;;;;;;;4.50;1.70;;;;;;101619.77;;;;107263;1274;62798;-33
2022/05/10 00:19:54;;;;;;;4.00;1.80;;;;;;101613.25;;;;107269;1274;64031;-33
2022/05/10 00:22:22;;;;;;;4.30;1.60;;;;;;101613.11;;;;107234;1274;65065;-33
2022/05/10 00:24:50;;;;;;;4.60;1.90;;;;;;101610.51;;;;107245;1274;64085;-33
2022/05/10 00:27:18;;;;;;;3.70;1.70;;;;;;101609.90;;;;107262;1274;63937;-33
2022/05/10 00:29:45;;;;;;;3.90;1.60;;;;;;101606.82;;;;107253;1274;64200;-34
2022/05/10 00:32:12;;;;;;;4.30;1.80;;;;;;101605.33;;;;107271;1274;64037;-34
2022/05/10 00:34:40;;;;;;;3.90;1.70;;;;;;101604.85;;;;107244;1274;65778;-34
2022/05/10 00:37:08;;;;;;;4.30;1.80;;;;;;101601.43;;;;107233;1274;63967;-29
2022/05/10 00:39:35;;;;;;;3.80;1.60;;;;;;101599.73;;;;107133;1274;64050;-29
2022/05/10 00:42:30;;;;;;;3.80;2.00;;;;;;101600.97;;;;107218;1274;64081;-33
2022/05/10 00:45:14;;;;;;;4.00;2.10;;;;;;101596.66;;;;107239;1274;65000;-34
2022/05/10 00:48:28;;;;;;;3.50;1.70;;;;;;101595.83;;;;107271;1274;66140;-30
2022/05/10 00:51:13;;;;;;;4.30;1.60;;;;;;101597.56;;;;106924;1280;63927;-29
2022/05/10 00:54:05;;;;;;;4.00;1.90;;;;;;101594.23;;;;107256;1274;63907;-33
2022/05/10 00:57:20;;;;;;;4.40;1.70;;;;;;101593.00;;;;107270;1274;64030;-28
2022/05/10 01:00:00;;;;;;;4.00;1.60;;;;;;101593.73;;;;107111;1273;63918;-29
2022/05/10 01:02:48;;;;;;;5.00;1.90;;;;;;101592.06;;;;107264;1274;66740;-28
2022/05/10 01:05:27;;;;;;;3.80;1.80;;;;;;101590.98;;;;107244;1274;63994;-29
2022/05/10 01:08:21;;;;;;;5.00;2.20;;;;;;101588.74;;;;107255;1274;63937;-30
2022/05/10 01:11:10;;;;;;;6.20;1.90;;;;;;101585.98;;;;107237;1274;64034;-28
2022/05/10 01:14:04;;;;;;;4.70;1.90;;;;;;101580.27;;;;107275;1274;64655;-34
2022/05/10 01:16:31;;;;;;;4.70;2.00;;;;;;101581.23;;;;107184;1274;66894;-35
2022/05/10 01:18:58;;;;;;;4.30;2.00;;;;;;101577.89;;;;107250;1274;64005;-34
2022/05/10 01:22:04;;;;;;;4.60;2.20;;;;;;101576.99;;;;107267;1274;64155;-32
2022/05/10 01:25:16;;;;;;;4.40;2.20;;;;;;101576.67;;;;107217;1274;64071;-34
2022/05/10 01:28:41;;;;;;;4.50;2.30;;;;;;101571.49;;;;107084;1274;63954;-30
2022/05/10 01:31:31;;;;;;;5.10;1.90;;;;;;101569.86;;;;107024;1274;66451;-29
2022/05/10 01:34:05;;;;;;;5.10;1.90;;;;;;101566.42;;;;107244;1274;64049;-28
2022/05/10 01:36:54;;;;;;;5.00;2.40;;;;;;101566.52;;;;107289;1274;63921;-30
2022/05/10 01:39:34;;;;;;;4.60;2.10;;;;;;101566.27;;;;107148;1273;64154;-29
2022/05/10 01:42:11;;;;;;;4.20;2.30;;;;;;101564.49;;;;107292;1274;65098;-28
2022/05/10 01:44:42;;;;;;;4.20;1.90;;;;;;101560.04;;;;107270;1274;65157;-30
2022/05/10 01:47:15;;;;;;;4.60;2.00;;;;;;101557.73;;;;107242;1274;63936;-29
2022/05/10 01:50:06;;;;;;;5.20;2.50;;;;;;101557.69;;;;107270;1274;64063;-30
2022/05/10 01:52:42;;;;;;;4.40;2.40;;;;;;101557.16;;;;107284;1274;63934;-28
2022/05/10 01:55:26;;;;;;;5.20;2.40;;;;;;101558.87;;;;107271;1274;64043;-30
2022/05/10 01:57:55;;;;;;;4.40;2.10;;;;;;101555.65;;;;107251;1274;66320;-28
2022/05/10 02:00:26;;;;;;;4.80;2.30;;;;;;101554.51;;;;107293;1274;63932;-30
2022/05/10 02:03:10;;;;;;;5.70;2.50;;;;;;101551.36;;;;107251;1274;63935;-33
2022/05/10 02:06:21;;;;;;;5.00;2.20;;;;;;101548.35;;;;107215;1274;63944;-33
2022/05/10 02:09:04;;;;;;;5.40;2.30;;;;;;101547.09;;;;107254;1274;64633;-32
2022/05/10 02:11:36;;;;;;;5.00;2.40;;;;;;101547.05;;;;107262;1274;66324;-29
2022/05/10 02:14:09;;;;;;;5.20;2.40;;;;;;101546.88;;;;107147;1274;64101;-29
2022/05/10 02:16:47;;;;;;;4.90;2.20;;;;;;101546.84;;;;107250;1274;63970;-35
2022/05/10 02:19:27;;;;;;;5.00;2.60;;;;;;101545.16;;;;107231;1273;63895;-34
2022/05/10 02:22:07;;;;;;;4.70;2.40;;;;;;101546.92;;;;107269;1274;63935;-29
2022/05/10 02:24:55;;;;;;;6.40;2.90;;;;;;101544.44;;;;107273;1274;65270;-31
2022/05/10 02:27:37;;;;;;;5.40;2.50;;;;;;101542.81;;;;107259;1274;64057;-29
2022/05/10 02:30:12;;;;;;;5.20;2.50;;;;;;101541.18;;;;107264;1274;64037;-30
2022/05/10 02:33:10;;;;;;;5.50;2.80;;;;;;101540.40;;;;107257;1274;63957;-30
2022/05/10 02:35:44;;;;;;;6.30;2.70;;;;;;101539.45;;;;107280;1274;64064;-28
2022/05/10 02:38:19;;;;;;;6.20;2.80;;;;;;101540.02;;;;107270;1274;65139;-29
2022/05/10 02:40:47;;;;;;;6.10;2.80;;;;;;101539.79;;;;107258;1274;63954;-29
2022/05/10 02:43:20;;;;;;;5.80;2.80;;;;;;101536.36;;;;107234;1274;64039;-30
2022/05/10 02:45:47;;;;;;;6.30;2.80;;;;;;101534.02;;;;107269;1274;64734;-29
2022/05/10 02:48:29;;;;;;;6.00;3.00;;;;;;101535.11;;;;107250;1274;64065;-30
2022/05/10 02:50:58;;;;;;;5.90;3.00;;;;;;101535.81;;;;107238;1274;65044;-29
2022/05/10 02:53:26;;;;;;;5.60;2.90;;;;;;101531.66;;;;107244;1274;63917;-34
2022/05/10 02:56:08;;;;;;;4.70;2.60;;;;;;101534.14;;;;107259;1274;63922;-33
2022/05/10 02:58:47;;;;;;;5.00;2.80;;;;;;101534.65;;;;107255;1274;64036;-34
2022/05/10 03:01:51;;;;;;;6.40;3.30;;;;;;101532.41;;;;107272;1274;63949;-34
2022/05/10 03:04:19;;;;;;;6.30;3.80;;;;;;101531.41;;;;107261;1274;66556;-33
2022/05/10 03:06:46;;;;;;;6.50;3.10;;;;;;101531.14;;;;107253;1272;63948;-29
2022/05/10 03:09:14;;;;;;;5.80;3.00;;;;;;101528.42;;;;107255;1274;64164;-29
2022/05/10 03:11:42;;;;;;;6.60;3.30;;;;;;101528.33;;;;107108;1274;64119;-30
2022/05/10 03:14:10;;;;;;;5.80;3.40;;;;;;101527.85;;;;107251;1274;64021;-32
2022/05/10 03:16:38;;;;;;;5.60;3.00;;;;;;101528.52;;;;107303;1274;65009;-34
2022/05/10 03:19:05;;;;;;;5.80;3.10;;;;;;101527.09;;;;107235;1274;63918;-34
2022/05/10 03:21:39;;;;;;;5.40;2.90;;;;;;101525.58;;;;107143;1274;63941;-31
2022/05/10 03:24:06;;;;;;;5.50;3.30;;;;;;101527.29;;;;107259;1274;64167;-30
2022/05/10 03:26:35;;;;;;;5.30;3.10;;;;;;101522.81;;;;107262;1274;63906;-39
2022/05/10 03:29:03;;;;;;;5.80;3.10;;;;;;101523.48;;;;107277;1274;65312;-33
2022/05/10 03:31:31;;;;;;;4.90;3.20;;;;;;101522.23;;;;107255;1274;63903;-33
2022/05/10 03:36:44;;;;;;;5.90;3.20;;;;;;101514.06;;;;107238;1274;65076;-29
2022/05/10 03:39:11;;;;;;;6.40;3.40;;;;;;101510.70;;;;107251;1274;64016;-32
2022/05/10 03:41:39;;;;;;;7.10;3.90;;;;;;101508.43;;;;107251;1274;65004;-34
2022/05/10 03:44:06;;;;;;;5.80;3.20;;;;;;101505.10;;;;107258;1274;63900;-36
2022/05/10 03:46:34;;;;;;;6.30;3.70;;;;;;101504.11;;;;107220;1274;64052;-33
2022/05/10 03:49:02;;;;;;;7.50;3.30;;;;;;101501.34;;;;107269;1274;64059;-33
2022/05/10 03:51:30;;;;;;;6.10;3.40;;;;;;101501.60;;;;107294;1274;64054;-34
2022/05/10 03:53:58;;;;;;;5.40;3.10;;;;;;101498.81;;;;107260;1274;65593;-33
2022/05/10 03:56:25;;;;;;;7.10;3.20;;;;;;101497.95;;;;107208;1274;64046;-32
2022/05/10 03:58:52;;;;;;;5.60;3.00;;;;;;101500.98;;;;107244;1274;64133;-34
2022/05/10 04:01:20;;;;;;;6.60;3.80;;;;;;101502.15;;;;107201;1274;63987;-32
2022/05/10 04:03:48;;;;;;;4.90;3.20;;;;;;101499.76;;;;107289;1274;63922;-29
2022/05/10 04:06:16;;;;;;;7.30;3.90;;;;;;101499.94;;;;107257;1274;65999;-29
2022/05/10 04:08:45;;;;;;;5.60;3.40;;;;;;101499.14;;;;107237;1274;63921;-33
2022/05/10 04:11:14;;;;;;;6.20;3.20;;;;;;101498.10;;;;107256;1274;63921;-33
2022/05/10 04:13:43;;;;;;;6.80;3.60;;;;;;101497.00;;;;107245;1274;64066;-30
2022/05/10 04:16:11;;;;;;;6.90;3.90;;;;;;101495.48;;;;107063;1274;288136;-30
2022/05/10 04:18:38;;;;;;;5.50;3.30;;;;;;101496.54;;;;107150;1274;64100;-29
2022/05/10 04:21:06;;;;;;;6.20;3.30;;;;;;101497.77;;;;107242;1274;64012;-29
2022/05/10 04:23:33;;;;;;;6.40;3.50;;;;;;101499.02;;;;107302;1274;63882;-29
2022/05/10 04:26:11;;;;;;;6.30;3.10;;;;;;101499.14;;;;107236;1273;63976;-30
2022/05/10 04:28:39;;;;;;;7.00;4.00;;;;;;101500.22;;;;107248;1274;63887;-33
2022/05/10 04:31:08;;;;;;;6.20;3.50;;;;;;101498.84;;;;107296;1274;64041;-37
2022/05/10 04:33:36;;;;;;;5.50;3.20;;;;;;101499.04;;;;107306;1274;64037;-33
2022/05/10 04:36:03;;;;;;;6.20;3.40;;;;;;101500.15;;;;107253;1274;63921;-34
2022/05/10 04:38:32;;;;;;;5.90;3.60;;;;;;101498.80;;;;107235;1274;64172;-29
2022/05/10 04:43:48;;;;;;;5.20;3.30;;;;;;101500.05;;;;107228;1274;66581;-33
2022/05/10 04:46:15;;;;;;;7.70;3.70;;;;;;101502.88;;;;107231;1274;64114;-33
2022/05/10 04:48:43;;;;;;;5.70;3.00;;;;;;101504.99;;;;107253;1274;63944;-34
2022/05/10 04:51:11;;;;;;;5.80;3.60;;;;;;101503.02;;;;107234;1274;64032;-32
2022/05/10 04:53:38;;;;;;;6.30;3.50;;;;;;101502.33;;;;107289;1274;63778;-34
2022/05/10 04:56:06;;;;;;;6.60;3.70;;;;;;101500.14;;;;107231;1274;65043;-34
2022/05/10 04:58:34;;;;;;;6.10;3.10;;;;;;101499.08;;;;107257;1274;64031;-28
2022/05/10 05:01:07;;;;;;;6.40;3.20;;;;;;101498.29;;;;107240;1274;64033;-29
2022/05/10 05:03:34;;;;;;;7.60;3.50;;;;;;101500.27;;;;107272;1274;64073;-34
2022/05/10 05:06:02;;;;;;;5.30;3.30;;;;;;101502.98;;;;107250;1274;64139;-33
2022/05/10 05:08:29;;;;;;;5.60;3.20;;;;;;101500.20;;;;107269;1274;64407;-29
2022/05/10 05:10:57;;;;;;;6.60;3.30;;;;;;101498.83;;;;107220;1274;63930;-28
2022/05/10 05:13:25;;;;;;;5.80;3.10;;;;;;101497.34;;;;107254;1273;64056;-29
2022/05/10 05:15:53;;;;;;;5.50;3.30;;;;;;101499.75;;;;107246;1274;64039;-28
2022/05/10 05:18:21;;;;;;;6.30;3.50;;;;;;101502.08;;;;107312;1274;63918;-31
2022/05/10 05:20:49;;;;;;;6.40;3.30;;;;;;101504.37;;;;107279;1274;64098;-34
2022/05/10 05:23:19;;;;;;;5.30;3.30;;;;;;101504.81;;;;107221;1272;64075;-30
2022/05/10 05:25:47;;;;;;;4.50;2.60;;;;;;101504.39;;;;107257;1274;64980;-33
2022/05/10 05:28:15;;;;;;;7.40;3.60;;;;;;101508.89;;;;107272;1274;63922;-34
2022/05/10 05:30:43;;;;;;;6.30;3.20;;;;;;101513.00;;;;107307;1274;64117;-34
2022/05/10 05:33:12;;;;;;;6.00;3.20;;;;;;101515.95;;;;107276;1274;65519;-32
2022/05/10 05:35:39;;;;;;;6.00;3.10;;;;;;101517.98;;;;107143;1274;64076;-33
2022/05/10 05:38:07;;;;;;;5.70;3.10;;;;;;101517.83;;;;107189;1274;65238;-28
2022/05/10 05:40:36;;;;;;;6.20;3.00;;;;;;101520.85;;;;107235;1274;64079;-29
2022/05/10 05:43:04;;;;;;;8.00;2.90;;;;;;101516.27;;;;107298;1274;63937;-29
2022/05/10 05:45:32;;;;;;;4.50;2.40;;;;;;101522.21;;;;107263;1274;65114;-30
2022/05/10 05:48:00;;;;;;;6.20;3.10;;;;;;101515.62;;;;107221;1274;63947;-31
2022/05/10 05:50:27;;;;;;;5.70;3.00;;;;;;101514.77;;;;107237;1274;64043;-31
2022/05/10 05:52:54;;;;;;;5.80;2.90;;;;;;101511.16;;;;107279;1274;64050;-31
2022/05/10 05:55:22;;;;;;;6.10;2.90;;;;;;101510.99;;;;107255;1274;64036;-30
2022/05/10 05:57:49;;;;;;;6.50;2.90;;;;;;101510.48;;;;107255;1274;65646;-29
2022/05/10 06:00:23;;;;;;;4.80;2.60;;;;;;101510.39;;;;107236;1274;63967;-29
2022/05/10 06:02:51;;;;;;;5.30;2.60;;;;;;101510.15;;;;107191;1274;64007;-33
2022/05/10 06:05:21;;;;;;;5.70;3.20;;;;;;101513.00;;;;107242;1274;63957;-33
2022/05/10 06:07:49;;;;;;;6.70;2.80;;;;;;101508.82;;;;107206;1274;63945;-34
2022/05/10 06:10:18;;;;;;;6.10;2.40;;;;;;101506.58;;;;107202;1274;65601;-34
2022/05/10 06:12:45;;;;;;;5.70;2.70;;;;;;101507.66;;;;107240;1274;62863;-28
2022/05/10 06:15:18;;;;;;;5.50;2.30;;;;;;101505.90;;;;107239;1274;64030;-30
2022/05/10 06:17:47;;;;;;;4.20;2.30;;;;;;101502.11;;;;107271;1274;63924;-29
2022/05/10 06:20:20;;;;;;;4.70;2.60;;;;;;101499.17;;;;107269;1274;64021;-29
2022/05/10 06:22:48;;;;;;;5.00;2.30;;;;;;101498.35;;;;107235;1274;65380;-29
2022/05/10 06:25:19;;;;;;;5.00;2.60;;;;;;101495.61;;;;107254;1274;63938;-28
2022/05/10 06:27:49;;;;;;;5.10;2.50;;;;;;101491.80;;;;108224;1274;61791;-29
2022/05/10 06:30:18;;;;;;;4.60;2.40;;;;;;101487.89;;;;107263;1274;64066;-28
2022/05/10 06:32:46;;;;;;;5.50;2.90;;;;;;101482.66;;;;107278;1274;65143;-32
2022/05/10 06:35:23;;;;;;;5.30;2.20;;;;;;101481.23;;;;107181;1271;64997;-31
2022/05/10 06:40:36;;;;;;;5.90;2.00;;;;;;101486.94;;;;107227;1274;64043;-28
2022/05/10 06:43:05;;;;;;;5.30;2.20;;;;;;101485.05;;;;107228;1274;63938;-29
2022/05/10 06:45:34;;;;;;;5.10;2.20;;;;;;101480.88;;;;107305;1274;63950;-29
2022/05/10 06:48:01;;;;;;;5.50;2.00;;;;;;101479.33;;;;107246;1274;64263;-29
2022/05/10 06:50:30;;;;;;;6.30;2.10;;;;;;101477.88;;;;107232;1274;64220;-30
2022/05/10 06:52:59;;;;;;;4.20;2.00;;;;;;101474.81;;;;107284;1274;64957;-32
2022/05/10 06:55:29;;;;;;;4.80;2.10;;;;;;101471.39;;;;107268;1274;63946;-32
2022/05/10 06:57:57;;;;;;;5.90;2.30;;;;;;101470.30;;;;107265;1274;64033;-29
2022/05/10 07:00:25;;;;;;;4.40;2.10;;;;;;101475.09;;;;107275;1274;65328;-32
2022/05/10 07:02:52;;;;;;;5.90;2.00;;;;;;101470.48;;;;107141;1274;64053;-34
2022/05/10 07:05:20;;;;;;;4.80;2.10;;;;;;101465.13;;;;107231;1274;63915;-30
2022/05/10 07:07:48;;;;;;;4.40;2.10;;;;;;101464.68;;;;107210;1274;63950;-29
2022/05/10 07:10:19;;;;;;;4.80;2.20;;;;;;101464.58;;;;107289;1274;63918;-28
2022/05/10 07:12:46;;;;;;;7.10;2.30;;;;;;101467.02;;;;107216;1274;65041;-28
2022/05/10 07:15:18;;;;;;;4.80;2.10;;;;;;101463.75;;;;107211;1274;65204;-29
2022/05/10 07:17:46;;;;;;;5.40;2.00;;;;;;101462.48;;;;107242;1274;63925;-28
2022/05/10 07:20:15;;;;;;;8.80;2.40;;;;;;101457.22;;;;107244;1275;63892;-28
2022/05/10 07:22:42;;;;;;;9.10;3.40;;;;;;101461.85;;;;107296;1274;63922;-29
2022/05/10 07:25:13;;;;;;;5.10;2.10;;;;;;101458.06;;;;107255;1274;65597;-30
2022/05/10 07:27:42;;;;;;;5.80;2.10;;;;;;101454.40;;;;107242;1274;64050;-32
2022/05/10 07:30:14;;;;;;;4.00;2.10;;;;;;101456.27;;;;107243;1274;64059;-32
2022/05/10 07:32:42;;;;;;;4.70;2.10;;;;;;101448.14;;;;107231;1274;64111;-32
2022/05/10 07:35:10;;;;;;;4.90;2.90;;;;;;101445.29;;;;107303;1275;63976;-31
2022/05/10 07:37:39;;;;;;;5.00;2.30;;;;;;101438.57;;;;107297;1274;65346;-31
2022/05/10 07:40:11;;;;;;;5.00;2.10;;;;;;101438.95;;;;107223;1274;64082;-33
2022/05/10 07:42:40;;;;;;;4.60;2.00;;;;;;101439.13;;;;107245;1274;63853;-32
2022/05/10 07:45:10;;;;;;;5.20;2.60;;;;;;101435.05;;;;107257;1274;63927;-32
2022/05/10 07:47:43;;;;;;;5.20;2.10;;;;;;101437.99;;;;107272;1275;64039;-30
2022/05/10 07:50:11;;;;;;;6.80;2.30;;;;;;101440.27;;;;107247;1274;65080;-30
2022/05/10 07:52:40;;;;;;;4.80;2.10;;;;;;101440.70;;;;107231;1274;64196;-39
2022/05/10 07:55:09;;;;;;;4.70;2.70;;;;;;101442.41;;;;107226;1272;63793;-52
2022/05/10 07:57:37;;;;;;;6.00;2.20;;;;;;101443.87;;;;107201;1274;64018;-30
2022/05/10 08:00:11;;;;;;;4.60;2.30;;;;;;101444.31;;;;107197;1275;64033;-30
2022/05/10 08:02:43;;;;;;;6.00;2.10;;;;;;101438.50;;;;107184;1274;64946;-31
2022/05/10 08:05:21;;;;;;;6.70;2.30;;;;;;101443.84;;;;107224;1274;64076;-31
2022/05/10 08:07:48;;;;;;;4.60;2.20;;;;;;101446.96;;;;107224;1274;64005;-30
2022/05/10 08:10:15;;;;;;;4.30;1.90;;;;;;101446.76;;;;107194;1274;64027;-30
2022/05/10 08:12:43;;;;;;;4.50;2.20;;;;;;101446.09;;;;107236;1274;61513;-33
2022/05/10 08:15:12;;;;;;;5.20;2.10;;;;;;101444.82;;;;107277;1274;64393;-33
2022/05/10 08:17:40;;;;;;;4.40;1.90;;;;;;101440.02;;;;107260;1274;64111;-29
2022/05/10 08:20:08;;;;;;;4.80;2.20;;;;;;101439.85;;;;107144;1274;64931;-31
2022/05/10 08:22:36;;;;;;;4.80;2.20;;;;;;101438.72;;;;107162;1274;64187;-33
2022/05/10 08:25:06;;;;;;;5.10;2.10;;;;;;101431.05;;;;107186;1274;64299;-31
2022/05/10 08:27:35;;;;;;;5.30;2.10;;;;;;101425.66;;;;107277;1274;65681;-31
2022/05/10 08:30:03;;;;;;;6.60;2.20;;;;;;101426.53;;;;107159;1274;63908;-30
2022/05/10 08:32:30;;;;;;;5.30;2.10;;;;;;101429.90;;;;107281;1274;64077;-31
2022/05/10 08:34:58;;;;;;;5.20;2.10;;;;;;101422.21;;;;107159;1274;63922;-30
2022/05/10 08:37:27;;;;;;;5.90;2.10;;;;;;101414.81;;;;107214;1274;63883;-29
2022/05/10 08:39:54;;;;;;;4.80;2.00;;;;;;101413.42;;;;107278;1274;66692;-31
2022/05/10 08:42:26;;;;;;;4.90;1.60;;;;;;101410.42;;;;107248;1274;63945;-31
2022/05/10 08:45:08;;;;;;;4.90;2.40;;;;;;101415.58;;;;107248;1274;64074;-30
2022/05/10 08:47:37;;;;;;;4.60;1.60;;;;;;101415.71;;;;107202;1274;64056;-34
2022/05/10 08:50:09;;;;;;;4.20;1.80;;;;;;101415.80;;;;107161;1274;63997;-30
2022/05/10 08:52:42;;;;;;;4.50;1.70;;;;;;101414.58;;;;107253;1274;65249;-31
2022/05/10 08:55:12;;;;;;;5.40;2.00;;;;;;101408.95;;;;107229;1274;64148;-30
2022/05/10 08:57:53;;;;;;;4.30;2.10;;;;;;101410.88;;;;107266;1274;64027;-31
2022/05/10 09:00:35;;;;;;;5.60;1.70;;;;;;101407.40;;;;107266;1275;64065;-30
2022/05/10 09:03:30;;;;;;;4.20;1.90;;;;;;101405.20;;;;107245;1274;63958;-30
2022/05/10 09:06:11;;;;;;;4.70;1.70;;;;;;101398.95;;;;107254;1274;65665;-30
2022/05/10 09:09:25;;;;;;;4.90;1.80;;;;;;101388.20;;;;107227;1274;64057;-30
2022/05/10 09:12:00;;;;;;;;;;;;;;101391.91;;;;107006;1277;64193;-26
2022/05/10 09:14:35;;;;;;;4.60;1.60;;;;;;101392.56;;;;107250;1274;63956;-27
2022/05/10 09:17:04;;;;;;;4.40;1.90;;;;;;101391.21;;;;107273;1274;64031;-26
2022/05/10 09:19:41;;;;;;;5.80;1.90;;;;;;101382.08;;;;107180;1274;64033;-28
2022/05/10 09:22:57;;;;;;;5.10;1.90;;;;;;101383.05;;;;107124;1277;63970;-26
2022/05/10 09:25:41;;;;;;;4.30;1.60;;;;;;101374.73;;;;106934;1277;64005;-28
2022/05/10 09:28:41;;;;;;;5.80;1.80;;;;;;101366.50;;;;107214;1274;64019;-25
2022/05/10 09:37:32;;;;;;;4.70;1.50;;;;;;101352.99;;;;107233;1274;65123;-33
2022/05/10 09:40:04;;;;;;;3.70;1.70;;;;;;101358.48;;;;107233;1274;64063;-31
2022/05/10 09:42:44;;;;;;;3.50;1.60;;;;;;101354.34;;;;107242;1274;64036;-28
2022/05/10 09:45:26;;;;;;;4.30;1.90;;;;;;101352.66;;;;107280;1274;63899;-28
2022/05/10 09:48:10;;;;;;;4.40;1.60;;;;;;101353.02;;;;107245;1274;66658;-29
2022/05/10 09:50:45;;;;;;;5.00;1.90;;;;;;101346.30;;;;107251;1274;63982;-28
2022/05/10 09:53:12;;;;;;;3.60;1.60;;;;;;101339.38;;;;107215;1274;64119;-26
2022/05/10 09:55:42;;;;;;;4.40;1.90;;;;;;101338.21;;;;107235;1274;64050;-26
2022/05/10 09:58:42;;;;;;;4.20;1.70;;;;;;101336.05;;;;107263;1274;64119;-27
2022/05/10 10:01:15;;;;;;;3.60;1.50;;;;;;101339.85;;;;107238;1274;66903;-26
2022/05/10 10:03:45;;;;;;;5.00;2.10;;;;;;101333.13;;;;107264;1274;63948;-26
2022/05/10 10:06:20;;;;;;;4.80;1.70;;;;;;101321.74;;;;107236;1274;63920;-26
2022/05/10 10:08:52;;;;;;;3.70;1.70;;;;;;101326.93;;;;107218;1274;64037;-27
2022/05/10 10:11:30;;;;;;;4.10;1.60;;;;;;101324.48;;;;107190;1274;64011;-28
2022/05/10 10:14:11;;;;;;;3.70;1.30;;;;;;101321.44;;;;107287;1274;64942;-29
2022/05/10 10:16:48;;;;;;;3.50;1.30;;;;;;101313.64;;;;107152;1274;64050;-26
2022/05/10 10:19:23;;;;;;;3.80;1.40;;;;;;101312.68;;;;107232;1274;64051;-26
2022/05/10 10:22:05;;;;;;;3.50;1.70;;;;;;101311.81;;;;107235;1274;64018;-28
2022/05/10 10:24:52;;;;;;;3.90;1.80;;;;;;101310.51;;;;107241;1274;63922;-28
2022/05/10 10:27:31;;;;;;;4.60;1.70;;;;;;101304.95;;;;107277;1274;66399;-26
2022/05/10 10:30:35;;;;;;;4.40;1.70;;;;;;101293.70;;;;107222;1272;64047;-26
2022/05/10 10:33:25;;;;;;;4.10;1.60;;;;;;101287.96;;;;107229;1274;63990;-28
2022/05/10 10:36:14;;;;;;;5.30;1.60;;;;;;101286.20;;;;107154;1274;64052;-27
2022/05/10 10:39:02;;;;;;;4.10;1.40;;;;;;101277.52;;;;107226;1274;63952;-28
2022/05/10 10:41:49;;;;;;;4.10;1.90;;;;;;101269.87;;;;107240;1274;66226;-27
2022/05/10 10:44:29;;;;;;;5.40;2.10;;;;;;101263.92;;;;107227;1274;63948;-27
2022/05/10 10:47:27;;;;;;;3.90;1.80;;;;;;101261.11;;;;107242;1274;63745;-29
2022/05/10 10:50:08;;;;;;;3.30;1.50;;;;;;101259.61;;;;107225;1273;63947;-23
2022/05/10 10:52:36;;;;;;;4.40;1.70;;;;;;101254.02;;;;107269;1274;65078;-25
2022/05/10 10:55:07;;;;;;;4.20;1.90;;;;;;101249.98;;;;107218;1274;65290;-25
2022/05/10 10:58:16;;;;;;;4.40;1.80;;;;;;101246.73;;;;107200;1274;63992;-26
2022/05/10 11:01:13;;;;;;;5.20;2.00;;;;;;101240.80;;;;107149;1274;64029;-27
2022/05/10 11:03:54;;;;;;;5.30;2.20;;;;;;101235.82;;;;107210;1274;64030;-28
2022/05/10 11:06:34;;;;;;;5.10;2.00;;;;;;101236.46;;;;107241;1272;63800;-25
2022/05/10 11:09:23;;;;;;;5.40;1.80;;;;;;101232.33;;;;107248;1273;67928;-26
2022/05/10 11:12:25;;;;;;;5.00;2.10;;;;;;101230.22;;;;107240;1274;63921;-26
2022/05/10 11:15:43;;;;;;;3.80;1.70;;;;;;101224.33;;;;107219;1274;64049;-38
2022/05/10 11:18:28;;;;;;;5.70;1.90;;;;;;101210.58;;;;107184;1274;63958;-28
2022/05/10 11:21:31;;;;;;;3.00;1.20;;;;;;101206.89;;;;107135;1274;64034;-29
2022/05/10 11:24:58;;;;;;;5.00;1.60;;;;;;101202.71;;;;107231;1274;65243;-28
2022/05/10 11:28:13;;;;;;;3.80;1.50;;;;;;101198.47;;;;107207;1274;64077;-25
2022/05/10 11:31:04;;;;;;;4.70;1.60;;;;;;101187.50;;;;107237;1274;63918;-26
2022/05/10 11:33:50;;;;;;;3.40;1.40;;;;;;101178.20;;;;107240;1274;64043;-25
2022/05/10 11:36:44;;;;;;;4.80;1.60;;;;;;101176.25;;;;107248;1274;64228;-26
2022/05/10 11:39:53;;;;;;;4.40;1.70;;;;;;101169.98;;;;107222;1274;65325;-28
2022/05/10 11:42:32;;;;;;;5.60;2.00;;;;;;101171.51;;;;107203;1273;64146;-33
2022/05/10 11:45:34;;;;;;;3.90;1.60;;;;;;101171.11;;;;107223;1274;63941;-28
2022/05/10 11:49:09;;;;;;;4.70;1.40;;;;;;101147.96;;;;107219;1274;64011;-26
2022/05/10 11:52:08;;;;;;;4.10;1.50;;;;;;101145.30;;;;107307;1274;63938;-27
2022/05/10 11:55:16;;;;;;;4.10;1.40;;;;;;101140.29;;;;107277;1274;65506;-27
2022/05/10 11:57:45;;;;;;;4.30;1.80;;;;;;101141.73;;;;107216;1274;63927;-27
2022/05/10 12:00:30;;;;;;;3.90;1.60;;;;;;101129.82;;;;107267;1274;63946;-27
2022/05/10 12:03:03;;;;;;;3.30;1.50;;;;;;101129.59;;;;107278;1274;63900;-28
2022/05/10 12:05:37;;;;;;;3.30;1.50;;;;;;101134.74;;;;107268;1274;64043;-29
2022/05/10 12:08:25;;;;;;;4.40;1.50;;;;;;101125.84;;;;107132;1274;64889;-29
2022/05/10 12:10:55;;;;;;;4.30;1.50;;;;;;101123.48;;;;107205;1274;64114;-33
2022/05/10 12:22:59;;;;;;;5.40;1.70;;;;;;101107.81;;;;107205;1274;66826;-26
2022/05/10 12:25:53;;;;;;;3.80;1.50;;;;;;101101.05;;;;107161;1274;63942;-25
2022/05/10 12:28:45;;;;;;;3.50;1.40;;;;;;101096.59;;;;107241;1274;63935;-26
2022/05/10 12:31:23;;;;;;;4.20;1.60;;;;;;101094.27;;;;107220;1273;64069;-27
2022/05/10 12:34:02;;;;;;;3.20;1.50;;;;;;101085.13;;;;107221;1274;63951;-26
2022/05/10 12:36:35;;;;;;;3.70;1.40;;;;;;101089.64;;;;107247;1274;66113;-26
2022/05/10 12:39:22;;;;;;;3.00;1.20;;;;;;101081.89;;;;107185;1274;64158;-23
2022/05/10 12:42:07;;;;;;;4.40;1.70;;;;;;101077.03;;;;107236;1274;64139;-27
2022/05/10 12:44:47;;;;;;;4.40;1.40;;;;;;101077.15;;;;107249;1274;64095;-26
2022/05/10 12:47:31;;;;;;;5.40;1.30;;;;;;101068.19;;;;107249;1274;63929;-27
2022/05/10 12:51:03;;;;;;;5.30;1.60;;;;;;101061.93;;;;107221;1274;64830;-26
2022/05/10 12:54:13;;;;;;;3.70;1.40;;;;;;101058.53;;;;107255;1274;64167;-24
2022/05/10 12:56:46;;;;;;;5.40;1.80;;;;;;101058.21;;;;107206;1274;63922;-27
2022/05/10 12:59:58;;;;;;;5.40;1.60;;;;;;101047.79;;;;107234;1274;64136;-26
2022/05/10 13:02:27;;;;;;;4.10;1.60;;;;;;101045.20;;;;107175;1274;64022;-26
2022/05/10 13:04:58;;;;;;;3.90;1.50;;;;;;101049.88;;;;107217;1274;65733;-29
2022/05/10 13:08:12;;;;;;;3.30;1.50;;;;;;101041.80;;;;107226;1274;64017;-28
2022/05/10 13:10:39;;;;;;;4.60;1.80;;;;;;101045.63;;;;107262;1274;63940;-27
2022/05/10 13:13:15;;;;;;;4.10;1.30;;;;;;101039.98;;;;107255;1274;63953;-27
2022/05/10 13:15:50;;;;;;;3.70;1.50;;;;;;101032.50;;;;107163;1274;63944;-26
2022/05/10 13:18:23;;;;;;;3.50;1.50;;;;;;101024.84;;;;107235;1274;65055;-25
2022/05/10 13:20:58;;;;;;;3.80;1.50;;;;;;101024.46;;;;107251;1274;64027;-27
2022/05/10 13:23:33;;;;;;;3.30;1.60;;;;;;101023.32;;;;107252;1274;64027;-28
2022/05/10 13:26:09;;;;;;;4.30;1.60;;;;;;101012.92;;;;107229;1274;64031;-29
2022/05/10 13:28:59;;;;;;;2.60;1.30;;;;;;101014.17;;;;107259;1274;64046;-25
2022/05/10 13:31:36;;;;;;;3.70;1.20;;;;;;101015.84;;;;107270;1272;65300;-48
2022/05/10 13:34:16;;;;;;;5.00;1.60;;;;;;101015.81;;;;107257;1274;63952;-27
2022/05/10 13:36:49;;;;;;;4.60;1.50;;;;;;101007.70;;;;107214;1274;64056;-43
2022/05/10 13:39:30;;;;;;;4.20;1.60;;;;;;101001.79;;;;107230;1274;63931;-29
2022/05/10 13:42:02;;;;;;;3.40;1.50;;;;;;100996.55;;;;107191;1274;64122;-30
2022/05/10 13:44:40;;;;;;;5.50;1.70;;;;;;100990.76;;;;107246;1274;66898;-27
2022/05/10 13:47:27;;;;;;;4.70;1.60;;;;;;100990.36;;;;107287;1274;63927;-31
2022/05/10 13:49:55;;;;;;;3.40;1.50;;;;;;100986.13;;;;107210;1274;63989;-31
2022/05/10 13:52:43;;;;;;;5.00;1.70;;;;;;100982.84;;;;107242;1273;64082;-28
2022/05/10 13:55:19;;;;;;;3.30;1.50;;;;;;100976.14;;;;107238;1273;64034;-27
2022/05/10 13:58:08;;;;;;;3.60;1.60;;;;;;100971.35;;;;107153;1274;65062;-29
2022/05/10 14:00:42;;;;;;;3.10;1.40;;;;;;100963.27;;;;107156;1274;64013;-27
2022/05/10 14:03:18;;;;;;;6.60;1.70;;;;;;100962.33;;;;107180;1274;64140;-26